Time;durP1;ratioP1;P1;durP2;ratioP2;P2;SDS_P1;SDS_P2;PMS_P1;PMS_P2;Temp;Humidity;BMP_temperature;BMP_pressure;BME280_temperature;BME280_humidity;BME280_pressure;Samples;Min_cycle;Max_cycle;Signal;HPM_P1;HPM_P2
2022/05/31 00:02:00;;;;;;;0.30;0.30;;;23.70;48.80;;;;;;5123247;28;20130;-69
2022/05/31 00:04:29;;;;;;;0.50;0.50;;;23.70;48.80;;;;;;5118200;27;20046;-68
2022/05/31 00:06:57;;;;;;;0.52;0.52;;;23.70;48.80;;;;;;5122006;27;20047;-66
2022/05/31 00:09:24;;;;;;;0.80;0.80;;;23.70;48.80;;;;;;5122734;27;20082;-66
2022/05/31 00:11:51;;;;;;;0.85;0.50;;;23.70;48.80;;;;;;5123194;27;20051;-66
2022/05/31 00:14:19;;;;;;;0.80;0.40;;;23.70;48.80;;;;;;5122742;27;20122;-66
2022/05/31 00:16:47;;;;;;;0.60;0.60;;;23.80;48.80;;;;;;5121270;28;20460;-68
2022/05/31 00:19:17;;;;;;;0.60;0.60;;;23.70;48.80;;;;;;5122737;27;20047;-68
2022/05/31 00:21:57;;;;;;;0.63;0.55;;;23.70;48.70;;;;;;5121639;28;20051;-68
2022/05/31 00:24:25;;;;;;;0.50;0.50;;;23.80;48.70;;;;;;5122091;27;20086;-68
2022/05/31 00:26:52;;;;;;;1.75;0.60;;;23.80;48.70;;;;;;5122233;27;20043;-68
2022/05/31 00:29:19;;;;;;;0.60;0.60;;;23.80;48.70;;;;;;5122306;27;20051;-66
2022/05/31 00:31:48;;;;;;;0.40;0.40;;;23.80;48.70;;;;;;5123230;27;20343;-65
2022/05/31 00:34:17;;;;;;;0.40;0.40;;;23.80;48.70;;;;;;5121662;27;20535;-66
2022/05/31 00:36:47;;;;;;;0.50;0.40;;;23.70;48.60;;;;;;5117125;27;20532;-66
2022/05/31 00:39:14;;;;;;;0.60;0.60;;;23.80;48.70;;;;;;5122354;27;20040;-66
2022/05/31 00:41:42;;;;;;;0.70;0.70;;;23.80;48.70;;;;;;5122372;27;20142;-68
2022/05/31 00:44:16;;;;;;;1.35;0.63;;;23.70;48.60;;;;;;5121545;27;20481;-68
2022/05/31 00:46:52;;;;;;;1.02;0.65;;;23.70;48.60;;;;;;5122073;27;20502;-68
2022/05/31 00:49:41;;;;;;;0.35;0.30;;;23.70;48.60;;;;;;5121842;27;20505;-68
2022/05/31 00:52:17;;;;;;;0.50;0.50;;;23.80;48.80;;;;;;5112190;27;20135;-66
2022/05/31 00:54:52;;;;;;;1.27;0.73;;;23.80;48.70;;;;;;5106532;28;20096;-66
2022/05/31 00:57:20;;;;;;;0.60;0.60;;;23.70;48.60;;;;;;5108041;28;20344;-66
2022/05/31 00:59:52;;;;;;;0.50;0.50;;;23.70;48.60;;;;;;5106646;28;20112;-66
2022/05/31 01:02:20;;;;;;;0.50;0.50;;;23.80;48.70;;;;;;5107017;28;20051;-66
2022/05/31 01:04:57;;;;;;;0.40;0.40;;;23.70;48.60;;;;;;5107513;28;20105;-68
2022/05/31 01:07:25;;;;;;;0.70;0.60;;;23.70;48.60;;;;;;5103650;28;20097;-66
2022/05/31 01:09:53;;;;;;;0.50;0.50;;;23.70;48.60;;;;;;5108288;27;20067;-66
2022/05/31 01:12:22;;;;;;;0.50;0.50;;;23.70;48.60;;;;;;5108360;28;20123;-66
2022/05/31 01:14:49;;;;;;;0.60;0.60;;;23.70;48.60;;;;;;5106937;28;20097;-66
2022/05/31 01:17:24;;;;;;;0.40;0.40;;;23.70;48.60;;;;;;5107787;28;20113;-66
2022/05/31 01:19:56;;;;;;;0.55;0.55;;;23.70;48.60;;;;;;5107928;28;20050;-66
2022/05/31 01:22:50;;;;;;;0.50;0.50;;;23.70;48.60;;;;;;5126999;27;20502;-66
2022/05/31 01:25:34;;;;;;;0.82;0.60;;;23.70;48.60;;;;;;5126610;27;20100;-66
2022/05/31 01:28:23;;;;;;;0.60;0.60;;;23.70;48.60;;;;;;5127016;27;20096;-66
2022/05/31 01:31:15;;;;;;;0.52;0.52;;;23.70;48.60;;;;;;5128587;27;20043;-66
2022/05/31 01:34:05;;;;;;;0.65;0.65;;;23.70;48.60;;;;;;5127614;27;20135;-66
2022/05/31 01:36:46;;;;;;;;;;;23.70;48.60;;;;;;5128538;27;20043;-66
2022/05/31 01:39:23;;;;;;;0.50;0.50;;;23.70;48.60;;;;;;5121765;27;19919;-66
2022/05/31 01:42:02;;;;;;;0.60;0.60;;;23.70;48.60;;;;;;5126925;27;20579;-66
2022/05/31 01:44:33;;;;;;;0.60;0.60;;;23.70;48.60;;;;;;5127811;27;20114;-66
2022/05/31 01:47:02;;;;;;;0.40;0.40;;;23.70;48.60;;;;;;5126195;27;20108;-66
2022/05/31 01:49:35;;;;;;;1.30;0.60;;;23.70;48.60;;;;;;5126823;27;20075;-67
2022/05/31 01:52:03;;;;;;;0.68;0.68;;;23.70;48.60;;;;;;5128042;27;20043;-67
2022/05/31 01:54:32;;;;;;;0.85;0.60;;;23.70;48.60;;;;;;5127615;27;20043;-67
2022/05/31 01:57:03;;;;;;;0.50;0.50;;;23.70;48.60;;;;;;5127714;27;20570;-66
2022/05/31 01:59:35;;;;;;;0.50;0.50;;;23.70;48.70;;;;;;5127145;27;20091;-67
2022/05/31 02:02:04;;;;;;;0.50;0.50;;;23.70;48.70;;;;;;5128111;27;20043;-66
2022/05/31 02:04:31;;;;;;;0.50;0.50;;;23.70;48.60;;;;;;5126171;27;20487;-67
2022/05/31 02:07:11;;;;;;;0.68;0.60;;;23.70;48.60;;;;;;5126366;27;20384;-66
2022/05/31 02:09:39;;;;;;;0.50;0.50;;;23.70;48.60;;;;;;5120874;27;20126;-66
2022/05/31 02:12:09;;;;;;;0.30;0.30;;;23.70;48.60;;;;;;5127782;27;20266;-66
2022/05/31 02:14:36;;;;;;;0.77;0.70;;;23.70;48.60;;;;;;5127703;27;20070;-67
2022/05/31 02:17:05;;;;;;;1.27;0.40;;;23.70;48.60;;;;;;5127224;27;20291;-66
2022/05/31 02:19:32;;;;;;;0.50;0.50;;;23.70;48.60;;;;;;5127799;27;20429;-66
2022/05/31 02:22:03;;;;;;;1.05;0.50;;;23.70;48.50;;;;;;5127199;27;20423;-66
2022/05/31 02:24:31;;;;;;;0.60;0.60;;;23.70;48.50;;;;;;5108064;27;20067;-67
2022/05/31 02:26:59;;;;;;;0.60;0.60;;;23.70;48.50;;;;;;5105515;28;20113;-66
2022/05/31 02:29:29;;;;;;;0.75;0.75;;;23.70;48.50;;;;;;5106639;28;20043;-67
2022/05/31 02:31:57;;;;;;;;;;;23.70;48.50;;;;;;5106197;28;20128;-66
2022/05/31 02:34:29;;;;;;;0.40;0.40;;;23.70;48.50;;;;;;5105951;28;19926;-67
2022/05/31 02:36:56;;;;;;;0.52;0.52;;;23.70;48.50;;;;;;5106301;28;20097;-66
2022/05/31 02:39:24;;;;;;;0.50;0.50;;;23.70;48.50;;;;;;5106294;28;20484;-67
2022/05/31 02:41:51;;;;;;;0.68;0.65;;;23.70;48.50;;;;;;5100061;28;20116;-67
2022/05/31 02:44:20;;;;;;;0.60;0.60;;;23.70;48.50;;;;;;5106246;28;20152;-69
2022/05/31 02:46:47;;;;;;;0.60;0.60;;;23.70;48.40;;;;;;5105957;28;20495;-67
2022/05/31 02:49:14;;;;;;;0.65;0.60;;;23.70;48.40;;;;;;5106784;27;20416;-66
2022/05/31 02:51:44;;;;;;;0.65;0.65;;;23.70;48.40;;;;;;5105597;28;20488;-66
2022/05/31 02:54:14;;;;;;;0.70;0.65;;;23.70;48.40;;;;;;5104772;28;20484;-66
2022/05/31 02:56:41;;;;;;;;;;;23.70;48.50;;;;;;5106501;28;20151;-67
2022/05/31 02:59:08;;;;;;;0.50;0.50;;;23.70;48.40;;;;;;5105436;28;19966;-67
2022/05/31 03:01:38;;;;;;;0.40;0.40;;;23.70;48.50;;;;;;5106020;28;20047;-67
2022/05/31 03:04:06;;;;;;;;;;;23.70;48.40;;;;;;5105043;28;20043;-67
2022/05/31 03:06:34;;;;;;;0.73;0.73;;;23.70;48.40;;;;;;5104333;28;19973;-67
2022/05/31 03:09:02;;;;;;;1.15;0.50;;;23.70;48.40;;;;;;5104637;28;20558;-66
2022/05/31 03:11:45;;;;;;;0.50;0.50;;;23.70;48.40;;;;;;5105693;28;20100;-67
2022/05/31 03:14:20;;;;;;;0.50;0.50;;;23.70;48.40;;;;;;5100979;28;20123;-66
2022/05/31 03:16:53;;;;;;;0.50;0.50;;;23.70;48.40;;;;;;5104879;28;20097;-67
2022/05/31 03:19:27;;;;;;;0.40;0.40;;;23.70;48.40;;;;;;5105741;28;20130;-67
2022/05/31 03:21:59;;;;;;;0.50;0.50;;;23.70;48.40;;;;;;5103405;28;20135;-67
2022/05/31 03:24:35;;;;;;;0.60;0.60;;;23.70;48.40;;;;;;5105289;28;20488;-67
2022/05/31 03:27:05;;;;;;;0.77;0.73;;;23.80;48.50;;;;;;5105746;28;20043;-67
2022/05/31 03:29:35;;;;;;;0.57;0.57;;;23.70;48.40;;;;;;5096584;28;20089;-67
2022/05/31 03:32:03;;;;;;;0.82;0.60;;;23.70;48.40;;;;;;5099427;28;20393;-67
2022/05/31 03:34:32;;;;;;;2.42;0.60;;;23.70;48.40;;;;;;5090034;28;20135;-67
2022/05/31 03:36:59;;;;;;;0.40;0.40;;;23.70;48.40;;;;;;5085373;28;20067;-67
2022/05/31 03:39:26;;;;;;;0.40;0.40;;;23.70;48.40;;;;;;5084941;28;20313;-66
2022/05/31 03:41:53;;;;;;;0.43;0.43;;;23.70;48.30;;;;;;5106420;28;20142;-67
2022/05/31 03:44:20;;;;;;;0.43;0.43;;;23.70;48.30;;;;;;5107727;27;20075;-67
2022/05/31 03:46:47;;;;;;;0.60;0.60;;;23.70;48.30;;;;;;5084897;28;20069;-67
2022/05/31 03:49:15;;;;;;;1.73;0.70;;;23.70;48.30;;;;;;5083412;28;20089;-67
2022/05/31 03:51:42;;;;;;;1.27;0.82;;;23.70;48.30;;;;;;5084034;28;20051;-68
2022/05/31 03:54:09;;;;;;;0.60;0.60;;;23.70;48.30;;;;;;5084368;28;20534;-67
2022/05/31 03:56:36;;;;;;;0.52;0.50;;;23.70;48.30;;;;;;5084899;28;20332;-67
2022/05/31 03:59:04;;;;;;;0.45;0.45;;;23.70;48.30;;;;;;5084474;28;20091;-67
2022/05/31 04:01:31;;;;;;;0.50;0.50;;;23.70;48.30;;;;;;5084961;28;20056;-69
2022/05/31 04:03:58;;;;;;;0.70;0.70;;;23.70;48.20;;;;;;5082498;28;20079;-67
2022/05/31 04:06:26;;;;;;;3.38;0.80;;;23.70;48.20;;;;;;5084816;28;20101;-67
2022/05/31 04:08:53;;;;;;;0.95;0.80;;;23.80;48.20;;;;;;5084729;28;20048;-66
2022/05/31 04:11:21;;;;;;;0.80;0.80;;;23.80;48.20;;;;;;5084227;28;20143;-65
2022/05/31 04:13:48;;;;;;;1.40;0.90;;;23.80;48.10;;;;;;5066669;28;20076;-66
2022/05/31 04:16:16;;;;;;;1.00;0.93;;;23.80;48.10;;;;;;5080258;28;20128;-66
2022/05/31 04:18:49;;;;;;;1.15;1.10;;;23.80;48.10;;;;;;5084282;28;20284;-66
2022/05/31 04:21:17;;;;;;;1.23;0.90;;;23.80;48.00;;;;;;5084921;28;20388;-66
2022/05/31 04:23:59;;;;;;;0.70;0.70;;;23.80;48.00;;;;;;5084415;28;20044;-67
2022/05/31 04:26:29;;;;;;;1.00;1.00;;;23.80;48.00;;;;;;5094019;28;20574;-66
2022/05/31 04:28:56;;;;;;;1.15;0.90;;;23.90;48.00;;;;;;5086570;28;20392;-66
2022/05/31 04:31:24;;;;;;;2.25;1.00;;;23.90;48.00;;;;;;5090401;27;20495;-66
2022/05/31 04:33:51;;;;;;;1.05;0.70;;;23.90;47.90;;;;;;5095448;28;20377;-66
2022/05/31 04:36:20;;;;;;;0.82;0.70;;;23.90;47.90;;;;;;5088528;28;20044;-66
2022/05/31 04:38:48;;;;;;;1.10;1.05;;;23.90;47.80;;;;;;5087873;28;20044;-66
2022/05/31 04:41:22;;;;;;;0.70;0.70;;;23.90;47.80;;;;;;5094330;28;20537;-66
2022/05/31 04:43:52;;;;;;;1.45;1.05;;;24.00;47.80;;;;;;5097835;28;20044;-66
2022/05/31 04:46:22;;;;;;;1.33;1.23;;;24.00;47.70;;;;;;5096363;28;20047;-66
2022/05/31 04:48:50;;;;;;;5.03;1.15;;;24.00;47.70;;;;;;5094106;27;20059;-66
2022/05/31 04:51:17;;;;;;;1.25;0.95;;;24.00;47.60;;;;;;5092658;28;20039;-66
2022/05/31 04:53:44;;;;;;;3.67;1.00;;;24.00;47.60;;;;;;5096754;28;20402;-66
2022/05/31 04:56:17;;;;;;;2.22;0.85;;;24.10;47.60;;;;;;5096152;28;20135;-66
2022/05/31 04:58:45;;;;;;;2.20;1.40;;;24.00;47.50;;;;;;5096601;28;20404;-66
2022/05/31 05:01:12;;;;;;;1.60;1.30;;;24.10;47.50;;;;;;5097658;28;20083;-66
2022/05/31 05:03:44;;;;;;;1.40;1.08;;;24.10;47.50;;;;;;5095786;28;20127;-66
2022/05/31 05:06:13;;;;;;;0.90;0.90;;;24.10;47.50;;;;;;5086209;28;20048;-66
2022/05/31 05:08:40;;;;;;;1.23;1.13;;;24.10;47.40;;;;;;5088876;28;20510;-66
2022/05/31 05:11:11;;;;;;;1.20;1.20;;;24.10;47.30;;;;;;5098464;27;20134;-66
2022/05/31 05:13:39;;;;;;;4.30;1.90;;;24.10;47.30;;;;;;5095896;28;20102;-66
2022/05/31 05:16:07;;;;;;;1.65;1.50;;;24.10;47.30;;;;;;5087666;28;20279;-66
2022/05/31 05:18:36;;;;;;;3.13;1.20;;;24.00;47.30;;;;;;5085682;27;20055;-66
2022/05/31 05:21:05;;;;;;;1.33;0.98;;;23.90;47.50;;;;;;5088755;28;20211;-66
2022/05/31 05:23:33;;;;;;;1.23;1.05;;;23.70;47.80;;;;;;5087132;28;20036;-67
2022/05/31 05:26:00;;;;;;;1.33;1.23;;;23.50;48.30;;;;;;5091943;28;20048;-68
2022/05/31 05:31:24;;;;;;;1.02;1.02;;;22.90;49.10;;;;;;5081530;28;20048;-71
2022/05/31 05:33:51;;;;;;;1.58;1.10;;;22.50;48.80;;;;;;5088152;28;20055;-70
2022/05/31 05:36:19;;;;;;;1.23;1.02;;;22.20;48.60;;;;;;5084370;28;20576;-71
2022/05/31 05:38:47;;;;;;;1.13;1.05;;;21.80;48.60;;;;;;5089117;28;20132;-72
2022/05/31 05:41:15;;;;;;;1.10;1.10;;;21.50;48.80;;;;;;5085597;27;20661;-68
2022/05/31 05:43:42;;;;;;;4.22;1.38;;;21.10;50.10;;;;;;5080479;27;20064;-69
2022/05/31 05:46:19;;;;;;;1.27;1.20;;;20.80;51.00;;;;;;5087904;28;20048;-69
2022/05/31 05:48:48;;;;;;;1.48;1.33;;;20.60;50.40;;;;;;5090300;28;20052;-68
2022/05/31 05:51:25;;;;;;;1.40;1.13;;;20.40;50.80;;;;;;5081186;27;20088;-68
2022/05/31 05:53:53;;;;;;;3.80;1.02;;;20.20;51.80;;;;;;5083581;28;20518;-70
2022/05/31 05:56:20;;;;;;;1.48;1.20;;;20.00;51.50;;;;;;5087342;28;20052;-70
2022/05/31 05:58:49;;;;;;;3.80;1.65;;;19.90;50.90;;;;;;5089278;28;20040;-71
2022/05/31 06:01:37;;;;;;;1.92;0.95;;;19.70;52.10;;;;;;5087055;28;20040;-70
2022/05/31 06:04:34;;;;;;;4.10;1.35;;;19.50;52.40;;;;;;5082102;28;20061;-73
2022/05/31 06:07:25;;;;;;;1.25;1.15;;;19.40;51.20;;;;;;5092741;28;20555;-68
2022/05/31 06:09:59;;;;;;;1.58;1.42;;;19.20;52.80;;;;;;5087111;28;20541;-68
2022/05/31 06:12:33;;;;;;;1.20;1.00;;;19.10;53.10;;;;;;5082053;28;20499;-69
2022/05/31 06:15:06;;;;;;;1.38;1.30;;;19.10;52.30;;;;;;5087953;28;20389;-69
2022/05/31 06:17:40;;;;;;;3.55;1.52;;;18.90;52.70;;;;;;5088739;28;20685;-71
2022/05/31 06:20:09;;;;;;;1.05;1.05;;;18.90;53.70;;;;;;5088350;28;20393;-69
2022/05/31 06:22:39;;;;;;;1.90;1.33;;;18.80;53.60;;;;;;5083875;28;20118;-68
2022/05/31 06:25:08;;;;;;;3.20;1.55;;;18.70;52.60;;;;;;5090904;27;20072;-71
2022/05/31 06:27:35;;;;;;;1.85;1.60;;;18.70;53.60;;;;;;5087938;28;20056;-69
2022/05/31 06:30:04;;;;;;;4.25;1.35;;;18.60;54.20;;;;;;5085066;28;20052;-68
2022/05/31 06:32:31;;;;;;;6.40;2.20;;;18.60;54.20;;;;;;5088333;28;20076;-70
2022/05/31 06:34:58;;;;;;;3.35;1.58;;;18.50;53.40;;;;;;5089052;28;20067;-72
2022/05/31 06:37:29;;;;;;;2.22;1.52;;;18.50;54.00;;;;;;5092941;27;20447;-70
2022/05/31 06:39:56;;;;;;;4.85;1.90;;;18.40;54.00;;;;;;5092191;28;20044;-77
2022/05/31 06:42:24;;;;;;;3.67;2.00;;;18.40;54.10;;;;;;5089305;28;20048;-70
2022/05/31 06:44:51;;;;;;;5.60;1.60;;;18.40;54.00;;;;;;5085307;28;20047;-74
2022/05/31 06:47:18;;;;;;;5.32;1.65;;;18.30;53.30;;;;;;5087844;28;20040;-78
2022/05/31 06:49:45;;;;;;;3.05;1.63;;;18.30;53.80;;;;;;5087533;28;20095;-72
2022/05/31 06:57:48;;;;;;;3.08;1.80;;;18.30;53.50;;;;;;5087619;28;20039;-68
2022/05/31 07:00:18;;;;;;;3.35;1.77;;;18.30;53.90;;;;;;5086022;28;20089;-67
2022/05/31 07:02:47;;;;;;;;;;;18.20;54.60;;;;;;5080847;27;20135;-71
2022/05/31 07:05:15;;;;;;;3.50;1.75;;;18.30;54.80;;;;;;5092489;28;20318;-70
2022/05/31 07:07:42;;;;;;;3.42;1.55;;;18.30;53.60;;;;;;5090262;28;20093;-72
2022/05/31 07:10:11;;;;;;;3.50;1.80;;;18.20;53.70;;;;;;5091265;28;20040;-71
2022/05/31 07:12:40;;;;;;;5.43;1.65;;;18.20;54.30;;;;;;5093564;28;20051;-70
2022/05/31 07:15:08;;;;;;;3.35;1.45;;;18.20;54.80;;;;;;5086396;28;20043;-73
2022/05/31 07:17:35;;;;;;;1.65;1.40;;;18.20;54.70;;;;;;5090545;28;20043;-73
2022/05/31 07:20:05;;;;;;;2.70;1.63;;;18.20;54.10;;;;;;5088346;28;20044;-74
2022/05/31 07:22:35;;;;;;;6.10;2.03;;;18.10;54.40;;;;;;5093729;28;20052;-74
2022/05/31 07:25:04;;;;;;;3.47;1.60;;;18.10;55.10;;;;;;5082164;28;20043;-73
2022/05/31 07:27:32;;;;;;;5.20;2.03;;;18.10;54.80;;;;;;5093676;28;20044;-75
2022/05/31 07:29:59;;;;;;;2.92;1.30;;;18.10;54.70;;;;;;5092471;28;20453;-73
2022/05/31 07:32:26;;;;;;;7.85;1.63;;;18.10;53.90;;;;;;5099052;27;20092;-74
2022/05/31 07:35:14;;;;;;;1.55;1.42;;;18.10;54.60;;;;;;5085442;28;20474;-73
2022/05/31 07:37:41;;;;;;;4.25;1.70;;;18.10;55.30;;;;;;5091852;28;20701;-71
2022/05/31 07:40:08;;;;;;;4.13;1.50;;;18.10;55.40;;;;;;5097699;28;20089;-70
2022/05/31 07:42:36;;;;;;;3.17;1.45;;;18.10;54.30;;;;;;5097931;28;20060;-64
2022/05/31 07:45:03;;;;;;;3.25;1.45;;;18.10;54.00;;;;;;5070871;28;20097;-65
2022/05/31 07:47:31;;;;;;;4.07;1.50;;;18.10;55.20;;;;;;5083159;28;20044;-66
2022/05/31 07:49:58;;;;;;;2.20;1.40;;;18.10;55.50;;;;;;5084183;28;20063;-67
2022/05/31 07:52:26;;;;;;;4.68;1.23;;;18.10;54.90;;;;;;5089807;28;20050;-65
2022/05/31 07:54:54;;;;;;;2.90;1.40;;;18.00;53.90;;;;;;5084780;28;20508;-66
2022/05/31 08:00:12;;;;;;;2.33;1.40;;;18.00;55.10;;;;;;5085845;28;20327;-71
2022/05/31 08:02:39;;;;;;;2.05;1.33;;;18.00;55.00;;;;;;5100690;27;20523;-67
2022/05/31 08:05:06;;;;;;;4.70;1.48;;;17.90;54.10;;;;;;5093605;27;20567;-70
2022/05/31 08:07:33;;;;;;;1.30;1.20;;;17.90;54.70;;;;;;5088337;28;20244;-69
2022/05/31 08:10:02;;;;;;;2.00;1.30;;;17.90;55.30;;;;;;5087123;28;20105;-69
2022/05/31 08:12:29;;;;;;;1.23;1.13;;;17.90;55.10;;;;;;5089484;27;20048;-66
2022/05/31 08:14:56;;;;;;;1.60;1.20;;;17.90;54.90;;;;;;5093882;28;20123;-71
2022/05/31 08:17:23;;;;;;;1.30;1.20;;;17.80;54.20;;;;;;5095434;28;20541;-67
2022/05/31 08:19:51;;;;;;;2.80;1.33;;;17.80;54.80;;;;;;5092987;28;20188;-67
2022/05/31 08:22:19;;;;;;;2.58;1.60;;;17.80;55.00;;;;;;5090517;28;20101;-68
2022/05/31 08:24:46;;;;;;;3.90;1.20;;;17.70;55.60;;;;;;5093640;28;20039;-65
2022/05/31 08:27:14;;;;;;;1.23;1.20;;;17.70;54.90;;;;;;5088768;28;20067;-67
2022/05/31 08:29:42;;;;;;;4.90;1.20;;;17.70;54.20;;;;;;5085172;28;20573;-68
2022/05/31 08:32:09;;;;;;;5.35;1.02;;;17.60;55.30;;;;;;5094281;28;20043;-71
2022/05/31 08:34:37;;;;;;;1.67;1.52;;;17.60;55.90;;;;;;5093856;28;20748;-66
2022/05/31 08:37:04;;;;;;;3.47;1.20;;;17.50;56.10;;;;;;5085633;28;20039;-66
2022/05/31 08:39:31;;;;;;;1.35;1.05;;;17.50;54.80;;;;;;5089610;27;20484;-69
2022/05/31 08:42:08;;;;;;;1.70;1.08;;;17.40;55.20;;;;;;5091881;28;20040;-66
2022/05/31 08:45:00;;;;;;;1.20;1.15;;;17.30;56.00;;;;;;5088476;28;20051;-67
2022/05/31 08:47:47;;;;;;;4.80;1.08;;;17.30;56.70;;;;;;5077713;28;20047;-67
2022/05/31 08:53:30;;;;;;;1.88;1.10;;;17.20;55.80;;;;;;5090408;28;20079;-71
2022/05/31 09:01:54;;;;;;;3.63;1.25;;;17.10;56.10;;;;;;5087660;28;20047;-69
2022/05/31 09:04:27;;;;;;;2.28;1.20;;;17.10;56.00;;;;;;5088573;28;20071;-71
2022/05/31 09:07:03;;;;;;;1.23;0.82;;;17.10;57.20;;;;;;5089001;27;20043;-66
2022/05/31 09:09:38;;;;;;;3.35;1.02;;;17.10;56.50;;;;;;5083863;28;20488;-68
2022/05/31 09:12:40;;;;;;;1.30;1.10;;;17.10;56.60;;;;;;5084263;28;20086;-69
2022/05/31 09:15:32;;;;;;;3.85;1.58;;;17.10;56.20;;;;;;5086509;28;20048;-71
2022/05/31 09:18:39;;;;;;;3.22;1.10;;;17.10;56.60;;;;;;5087330;27;20140;-70
2022/05/31 09:21:19;;;;;;;6.05;1.20;;;17.10;56.80;;;;;;5089835;28;21654;-68
2022/05/31 09:23:46;;;;;;;2.45;1.10;;;17.10;57.00;;;;;;5089374;28;20056;-67
2022/05/31 09:26:53;;;;;;;3.83;1.25;;;17.10;56.00;;;;;;5091885;27;20052;-67
2022/05/31 09:29:26;;;;;;;4.75;1.00;;;17.20;56.20;;;;;;5089609;28;20051;-66
2022/05/31 09:32:32;;;;;;;1.00;0.98;;;17.20;56.60;;;;;;5088495;27;20071;-66
2022/05/31 09:35:31;;;;;;;5.30;1.25;;;17.20;56.80;;;;;;5087676;28;20052;-65
2022/05/31 09:38:14;;;;;;;3.28;1.00;;;17.20;56.70;;;;;;5089332;28;20134;-68
2022/05/31 09:41:06;;;;;;;3.42;1.35;;;17.20;55.50;;;;;;5086162;28;20040;-69
2022/05/31 09:43:50;;;;;;;1.75;1.02;;;17.20;56.60;;;;;;5077537;28;20051;-65
2022/05/31 09:46:47;;;;;;;2.85;1.00;;;17.20;57.70;;;;;;5087573;27;20097;-69
2022/05/31 09:49:45;;;;;;;4.82;1.90;;;17.30;57.10;;;;;;5090674;28;20063;-67
2022/05/31 09:52:29;;;;;;;2.25;1.25;;;17.40;56.20;;;;;;5085335;28;20289;-66
2022/05/31 09:58:32;;;;;;;1.63;1.30;;;17.40;57.30;;;;;;5087983;27;20454;-65
2022/05/31 10:01:04;;;;;;;4.15;1.73;;;17.50;55.70;;;;;;5097019;27;20051;-66
2022/05/31 10:03:35;;;;;;;1.75;1.05;;;17.50;56.70;;;;;;5086077;27;20040;-68
2022/05/31 10:06:18;;;;;;;1.40;1.30;;;17.50;56.90;;;;;;5096713;27;20044;-65
2022/05/31 10:08:47;;;;;;;1.83;1.02;;;17.50;56.50;;;;;;5088380;28;20058;-65
2022/05/31 10:11:24;;;;;;;2.97;1.35;;;17.50;55.80;;;;;;5086927;28;20040;-66
2022/05/31 10:14:02;;;;;;;1.83;1.50;;;17.50;56.80;;;;;;5094094;27;20043;-66
2022/05/31 10:16:34;;;;;;;4.43;1.30;;;17.40;56.80;;;;;;5090762;28;20052;-67
2022/05/31 10:19:05;;;;;;;2.75;1.25;;;17.50;56.90;;;;;;5089052;28;20040;-65
2022/05/31 10:21:38;;;;;;;;;;;17.50;56.30;;;;;;5094170;28;20128;-66
2022/05/31 10:24:23;;;;;;;2.25;1.42;;;17.50;56.10;;;;;;5095768;28;19924;-65
2022/05/31 10:27:19;;;;;;;1.23;1.20;;;17.50;56.60;;;;;;5091691;28;20472;-66
2022/05/31 10:29:52;;;;;;;1.30;1.20;;;17.40;56.70;;;;;;5085791;28;20405;-67
2022/05/31 10:32:26;;;;;;;2.28;2.08;;;17.50;56.20;;;;;;5096810;27;20492;-66
2022/05/31 10:35:16;;;;;;;3.13;1.70;;;17.50;55.90;;;;;;5083957;28;20532;-66
2022/05/31 10:38:10;;;;;;;4.55;2.05;;;17.50;56.80;;;;;;5092782;28;20040;-67
2022/05/31 10:40:55;;;;;;;2.13;1.70;;;17.50;57.10;;;;;;5091068;28;20069;-67
2022/05/31 10:43:57;;;;;;;3.92;2.15;;;17.60;56.70;;;;;;5087873;28;20079;-64
2022/05/31 10:46:29;;;;;;;4.15;1.92;;;17.50;56.30;;;;;;5089878;28;20109;-67
2022/05/31 10:49:04;;;;;;;1.58;1.48;;;17.60;56.60;;;;;;5090394;28;20056;-66
2022/05/31 10:51:47;;;;;;;4.78;1.98;;;17.60;57.20;;;;;;5085702;27;20075;-66
2022/05/31 10:54:51;;;;;;;3.88;2.33;;;17.70;56.60;;;;;;5095673;28;20127;-62
2022/05/31 10:57:57;;;;;;;3.58;2.63;;;17.70;55.80;;;;;;5092564;27;20048;-65
2022/05/31 11:00:51;;;;;;;6.57;2.50;;;17.80;57.10;;;;;;5091571;28;20048;-65
2022/05/31 11:03:34;;;;;;;4.72;2.42;;;17.70;56.90;;;;;;5091098;28;20048;-63
2022/05/31 11:06:22;;;;;;;3.60;2.25;;;17.70;56.10;;;;;;5084901;28;20504;-63
2022/05/31 11:12:29;;;;;;;5.80;2.42;;;17.60;57.80;;;;;;5096092;27;20112;-63
2022/05/31 11:15:29;;;;;;;6.30;3.25;;;17.60;56.30;;;;;;5091716;27;20096;-63
2022/05/31 11:18:35;;;;;;;7.32;2.85;;;17.60;57.20;;;;;;5088816;27;20442;-63
2022/05/31 11:21:24;;;;;;;6.28;2.70;;;17.70;57.40;;;;;;5087482;28;20459;-62
2022/05/31 11:24:31;;;;;;;5.50;2.60;;;17.60;56.60;;;;;;5083907;28;20040;-63
2022/05/31 11:27:38;;;;;;;6.47;2.55;;;17.70;57.10;;;;;;5085885;28;20040;-63
2022/05/31 11:30:38;;;;;;;7.78;3.75;;;17.70;57.40;;;;;;5093517;28;20073;-62
2022/05/31 11:33:38;;;;;;;5.00;3.03;;;17.70;57.00;;;;;;5085587;28;20080;-63
2022/05/31 11:36:33;;;;;;;5.00;3.22;;;17.70;57.30;;;;;;5089183;28;20040;-62
2022/05/31 11:39:24;;;;;;;5.07;2.60;;;17.70;57.00;;;;;;5092710;28;20134;-63
2022/05/31 11:42:17;;;;;;;6.63;2.88;;;17.70;57.20;;;;;;5082801;28;20082;-63
2022/05/31 11:45:14;;;;;;;3.65;2.67;;;17.70;57.30;;;;;;5091470;28;20619;-62
2022/05/31 11:48:13;;;;;;;3.22;2.67;;;17.70;56.70;;;;;;5094913;28;20458;-64
2022/05/31 11:51:17;;;;;;;5.05;2.80;;;17.80;57.00;;;;;;5090530;28;20486;-63
2022/05/31 11:54:19;;;;;;;3.70;3.08;;;17.80;56.90;;;;;;5093649;28;20048;-63
2022/05/31 11:57:18;;;;;;;4.32;2.80;;;17.80;56.30;;;;;;5089068;28;20044;-66
2022/05/31 12:00:03;;;;;;;3.22;2.53;;;17.80;56.80;;;;;;5079390;28;20097;-65
2022/05/31 12:02:49;;;;;;;5.45;2.40;;;17.90;56.70;;;;;;5099481;28;20047;-63
2022/05/31 12:05:29;;;;;;;5.40;2.90;;;17.90;56.50;;;;;;5093620;28;20109;-62
2022/05/31 12:08:14;;;;;;;3.63;2.50;;;17.90;56.60;;;;;;5088591;28;21573;-63
2022/05/31 12:10:51;;;;;;;3.42;2.70;;;17.90;56.20;;;;;;5082062;28;20507;-64
2022/05/31 12:13:20;;;;;;;3.13;2.45;;;17.90;56.20;;;;;;5087622;28;20043;-61
2022/05/31 12:15:50;;;;;;;3.17;2.65;;;17.90;56.80;;;;;;5086998;28;20079;-62
2022/05/31 12:18:37;;;;;;;5.45;3.08;;;17.90;56.30;;;;;;5087704;28;20051;-62
2022/05/31 12:21:35;;;;;;;2.75;2.47;;;17.90;55.60;;;;;;5092941;28;20051;-62
2022/05/31 12:24:16;;;;;;;2.88;2.42;;;18.00;57.20;;;;;;5097881;28;20109;-62
2022/05/31 12:26:56;;;;;;;;;;;17.90;56.60;;;;;;5087483;28;20052;-62
2022/05/31 12:29:30;;;;;;;3.67;3.00;;;17.90;56.50;;;;;;5087596;28;19924;-63
2022/05/31 12:32:24;;;;;;;4.88;2.90;;;17.90;56.90;;;;;;5095305;28;20453;-64
2022/05/31 12:34:52;;;;;;;3.42;2.33;;;17.90;57.10;;;;;;5090588;28;20595;-64
2022/05/31 12:37:19;;;;;;;3.45;2.58;;;17.90;56.90;;;;;;5082574;28;20090;-63
2022/05/31 12:39:50;;;;;;;3.17;2.38;;;17.90;57.20;;;;;;5084896;28;20044;-64
2022/05/31 12:42:38;;;;;;;3.67;2.38;;;17.90;57.90;;;;;;5090846;28;20048;-64
2022/05/31 12:45:21;;;;;;;6.72;2.67;;;17.90;57.60;;;;;;5084512;28;20055;-64
2022/05/31 12:47:57;;;;;;;2.53;2.05;;;17.90;57.50;;;;;;5085867;28;20048;-65
2022/05/31 12:51:04;;;;;;;4.63;2.70;;;17.90;58.40;;;;;;5090722;28;20051;-62
2022/05/31 12:54:00;;;;;;;3.13;2.55;;;17.90;57.90;;;;;;5088185;28;20048;-61
2022/05/31 12:56:37;;;;;;;3.78;2.53;;;18.00;57.70;;;;;;5091409;28;20036;-62
2022/05/31 12:59:07;;;;;;;3.58;2.75;;;18.00;57.90;;;;;;5089252;28;20183;-64
2022/05/31 13:01:43;;;;;;;5.85;2.97;;;17.90;57.80;;;;;;5098890;28;20105;-64
2022/05/31 13:04:21;;;;;;;3.45;2.47;;;17.90;58.10;;;;;;5092622;28;20075;-63
2022/05/31 13:07:10;;;;;;;2.60;2.08;;;18.00;58.70;;;;;;5092363;28;20050;-63
2022/05/31 13:09:41;;;;;;;3.67;2.10;;;18.00;58.70;;;;;;5090828;28;20055;-63
2022/05/31 13:21:06;;;;;;;2.40;2.10;;;18.10;58.10;;;;;;5085598;28;20422;-66
2022/05/31 13:23:54;;;;;;;2.35;2.15;;;18.10;58.30;;;;;;5090788;28;20139;-63
2022/05/31 13:26:26;;;;;;;3.60;2.30;;;18.10;58.20;;;;;;5089517;28;20036;-66
2022/05/31 13:29:02;;;;;;;3.08;2.55;;;18.20;57.00;;;;;;5085509;28;20129;-65
2022/05/31 13:31:33;;;;;;;2.78;2.58;;;18.20;57.80;;;;;;5077333;28;20041;-66
2022/05/31 13:34:05;;;;;;;5.55;2.80;;;18.20;57.60;;;;;;5091237;28;20080;-64
2022/05/31 13:36:45;;;;;;;2.60;2.17;;;18.20;57.40;;;;;;5086388;28;20064;-66
2022/05/31 13:39:17;;;;;;;3.85;2.67;;;18.10;58.40;;;;;;5093705;28;20518;-65
2022/05/31 13:41:54;;;;;;;3.28;2.22;;;18.20;58.00;;;;;;5097099;28;20059;-65
2022/05/31 13:44:28;;;;;;;2.90;2.22;;;18.20;57.30;;;;;;5082843;28;20108;-67
2022/05/31 13:47:01;;;;;;;4.90;2.85;;;18.20;57.80;;;;;;5092758;28;20086;-66
2022/05/31 13:49:46;;;;;;;3.80;2.22;;;18.20;57.90;;;;;;5092348;28;20439;-64
2022/05/31 13:52:31;;;;;;;5.20;2.30;;;18.10;57.00;;;;;;5086310;28;20112;-65
2022/05/31 13:55:12;;;;;;;3.88;2.55;;;18.10;58.20;;;;;;5088835;28;20066;-65
2022/05/31 13:57:52;;;;;;;9.18;2.30;;;18.10;58.40;;;;;;5086905;28;20081;-66
2022/05/31 14:00:43;;;;;;;3.30;2.58;;;18.00;58.40;;;;;;5083594;28;20047;-66
2022/05/31 14:03:27;;;;;;;4.50;2.55;;;18.10;58.20;;;;;;5084148;28;20532;-66
2022/05/31 14:05:58;;;;;;;4.20;2.15;;;18.10;58.80;;;;;;5070976;28;20079;-65